Time;durP1;ratioP1;P1;durP2;ratioP2;P2;SDS_P1;SDS_P2;PMS_P1;PMS_P2;Temp;Humidity;BMP_temperature;BMP_pressure;BME280_temperature;BME280_humidity;BME280_pressure;Samples;Min_cycle;Max_cycle;Signal;HPM_P1;HPM_P2
2023/02/08 00:02:23;;;;;;;41.38;28.95;;;;;;;-6.22;100.00;100670.66;15282309;19;20013;-80
2023/02/08 00:08:00;;;;;;;39.60;28.73;;;;;;;-6.24;100.00;100667.13;15279090;19;20014;-81
2023/02/08 00:13:42;;;;;;;42.13;30.13;;;;;;;-6.24;100.00;100661.88;15285657;19;20014;-79
2023/02/08 00:19:08;;;;;;;44.80;30.38;;;;;;;-6.25;100.00;100662.75;15284223;19;20093;-80
2023/02/08 00:24:36;;;;;;;44.00;29.83;;;;;;;-6.27;100.00;100661.88;15290049;19;20009;-80
2023/02/08 00:30:00;;;;;;;41.85;28.35;;;;;;;-6.27;100.00;100654.00;15285822;19;20025;-81
2023/02/08 00:35:26;;;;;;;37.67;27.50;;;;;;;-6.32;100.00;100663.66;15306021;19;20029;-81
2023/02/08 00:41:00;;;;;;;35.05;25.88;;;;;;;-6.40;100.00;100663.63;15310801;19;20014;-81
2023/02/08 00:46:25;;;;;;;35.70;27.13;;;;;;;-6.51;100.00;100655.75;15306181;19;20022;-80
2023/02/08 00:51:50;;;;;;;33.58;25.02;;;;;;;-6.59;100.00;100657.50;15307730;19;20018;-79
2023/02/08 00:57:17;;;;;;;31.85;25.08;;;;;;;-6.69;100.00;100658.34;15305849;19;20014;-80
2023/02/08 01:02:46;;;;;;;35.80;27.23;;;;;;;-6.73;100.00;100657.47;15325183;19;20018;-80
2023/02/08 01:08:10;;;;;;;40.90;28.67;;;;;;;-6.76;100.00;100659.22;15321669;19;20026;-81
2023/02/08 01:13:38;;;;;;;43.58;28.77;;;;;;;-6.76;100.00;100661.84;15322915;19;20025;-80
2023/02/08 01:19:05;;;;;;;41.83;29.20;;;;;;;-6.77;100.00;100658.34;15314825;19;20046;-80
2023/02/08 01:24:29;;;;;;;38.00;27.98;;;;;;;-6.79;100.00;100653.97;15321354;19;20011;-81
2023/02/08 01:29:56;;;;;;;39.35;27.73;;;;;;;-6.83;100.00;100660.97;15316940;19;20421;-81
2023/02/08 01:35:21;;;;;;;39.17;28.02;;;;;;;-6.86;100.00;100656.56;15319204;19;20047;-81
2023/02/08 01:40:55;;;;;;;38.10;27.30;;;;;;;-6.89;100.00;100655.69;15324384;19;20022;-81
2023/02/08 01:46:23;;;;;;;47.55;32.85;;;;;;;-6.89;100.00;100653.06;15316237;19;20106;-80
2023/02/08 01:51:52;;;;;;;52.25;35.13;;;;;;;-6.89;100.00;100661.81;15322151;19;20010;-80
2023/02/08 01:57:17;;;;;;;45.35;31.92;;;;;;;-6.89;100.00;100659.19;15321719;19;20014;-81
2023/02/08 02:02:46;;;;;;;39.20;28.38;;;;;;;-6.95;100.00;100663.53;15315780;19;20015;-80
2023/02/08 02:08:13;;;;;;;38.90;27.90;;;;;;;-7.01;100.00;100659.16;15298298;19;20093;-80
2023/02/08 02:13:39;;;;;;;38.60;27.65;;;;;;;-7.07;100.00;100656.50;15303799;19;20019;-81
2023/02/08 02:19:10;;;;;;;41.17;29.23;;;;;;;-7.14;100.00;100645.13;15310589;19;20018;-81
2023/02/08 02:24:56;;;;;;;40.70;28.67;;;;;;;-7.20;100.00;100645.13;15296980;19;20106;-81
2023/02/08 02:30:37;;;;;;;39.67;29.85;;;;;;;-7.24;100.00;100651.19;15287195;19;20023;-81
2023/02/08 02:36:09;;;;;;;38.80;29.00;;;;;;;-7.29;100.00;100645.94;15306125;19;20019;-80
2023/02/08 02:47:28;;;;;;;42.03;30.42;;;;;;;-7.30;100.00;100638.97;15314529;19;20022;-81
2023/02/08 02:53:02;;;;;;;39.33;27.83;;;;;;;-7.35;100.00;100645.94;15342636;19;20003;-81
2023/02/08 02:58:30;;;;;;;39.63;27.10;;;;;;;-7.44;100.00;100647.63;15328947;19;20019;-80
2023/02/08 03:03:55;;;;;;;42.10;27.40;;;;;;;-7.51;100.00;100640.63;15289768;19;20050;-80
2023/02/08 03:09:45;;;;;;;41.22;29.40;;;;;;;-7.54;100.00;100637.97;15282817;19;20581;-80
2023/02/08 03:15:24;;;;;;;38.75;28.05;;;;;;;-7.55;100.00;100633.59;15292983;19;20049;-81
2023/02/08 03:20:53;;;;;;;39.92;28.67;;;;;;;-7.56;100.00;100637.09;15292897;19;20014;-80
2023/02/08 03:26:25;;;;;;;40.55;29.60;;;;;;;-7.57;100.00;100651.03;15307505;19;20011;-81
2023/02/08 03:31:56;;;;;;;44.00;30.35;;;;;;;-7.59;100.00;100656.28;15309514;19;20007;-81
2023/02/08 03:37:24;;;;;;;39.63;28.42;;;;;;;-7.62;100.00;100658.03;15323288;19;20021;-81
2023/02/08 03:42:55;;;;;;;37.75;27.15;;;;;;;-7.67;100.00;100659.72;15301530;19;20014;-81
2023/02/08 03:48:23;;;;;;;36.58;26.67;;;;;;;-7.76;100.00;100650.09;15280019;19;20011;-80
2023/02/08 03:53:51;;;;;;;39.58;27.45;;;;;;;-7.79;100.00;100653.56;15284024;19;20047;-80
2023/02/08 03:59:23;;;;;;;39.42;27.45;;;;;;;-7.83;100.00;100664.88;15283875;19;20706;-80
2023/02/08 04:04:52;;;;;;;36.30;26.95;;;;;;;-7.85;100.00;100665.72;15282725;19;20008;-80
2023/02/08 04:10:17;;;;;;;37.22;27.10;;;;;;;-7.89;100.00;100675.28;15286298;19;20014;-80
2023/02/08 04:15:44;;;;;;;40.00;28.92;;;;;;;-7.94;100.00;100672.66;15284667;19;20470;-79
2023/02/08 04:21:09;;;;;;;43.13;30.10;;;;;;;-7.93;100.00;100678.75;15292358;19;20007;-79
2023/02/08 04:26:33;;;;;;;49.50;32.90;;;;;;;-7.91;100.00;100674.41;15287483;19;20358;-80
2023/02/08 04:32:02;;;;;;;44.90;30.45;;;;;;;-7.91;100.00;100666.56;15295190;19;20507;-81
2023/02/08 04:37:34;;;;;;;45.70;30.20;;;;;;;-7.92;100.00;100662.19;15320559;19;20852;-77
2023/02/08 04:42:59;;;;;;;45.92;31.23;;;;;;;-7.92;100.00;100662.19;15312368;19;20007;-79
2023/02/08 04:48:27;;;;;;;48.95;31.15;;;;;;;-7.96;100.00;100655.19;15294999;19;20171;-79
2023/02/08 04:53:51;;;;;;;45.58;30.20;;;;;;;-7.97;100.00;100648.22;15305337;19;20033;-79
2023/02/08 04:59:16;;;;;;;49.50;31.27;;;;;;;-8.01;100.00;100649.03;15307474;19;20002;-78
2023/02/08 05:04:43;;;;;;;44.05;30.08;;;;;;;-8.03;100.00;100645.53;15306507;19;20074;-79
2023/02/08 05:10:12;;;;;;;47.95;31.00;;;;;;;-8.06;100.00;100641.16;15314156;19;20010;-80
2023/02/08 05:15:37;;;;;;;46.10;31.25;;;;;;;-8.07;100.00;100635.06;15314672;19;20007;-79
2023/02/08 05:21:09;;;;;;;46.15;31.17;;;;;;;-8.10;100.00;100640.28;15300369;19;20018;-79
2023/02/08 05:26:34;;;;;;;50.53;31.63;;;;;;;-8.12;100.00;100642.00;15288211;19;20018;-79
2023/02/08 05:31:59;;;;;;;53.22;32.03;;;;;;;-8.15;100.00;100639.34;15291196;19;20392;-78
2023/02/08 05:37:26;;;;;;;41.40;28.42;;;;;;;-8.17;100.00;100642.84;15284067;19;20711;-79
2023/02/08 05:42:51;;;;;;;44.60;29.48;;;;;;;-8.21;100.00;100641.94;15290090;19;20358;-79
2023/02/08 05:48:15;;;;;;;56.53;35.95;;;;;;;-8.23;100.00;100639.28;15284653;19;20010;-77
2023/02/08 05:53:44;;;;;;;63.65;38.75;;;;;;;-8.21;100.00;100641.94;15288448;19;20110;-78
2023/02/08 05:59:09;;;;;;;58.53;35.97;;;;;;;-8.21;100.00;100642.78;15282460;19;20466;-78
2023/02/08 06:04:33;;;;;;;58.40;36.45;;;;;;;-8.20;100.00;100647.16;15289711;19;20007;-79
2023/02/08 06:10:00;;;;;;;67.78;40.00;;;;;;;-8.19;100.00;100650.69;15307187;19;20369;-79
2023/02/08 06:15:28;;;;;;;72.33;42.57;;;;;;;-8.19;100.00;100661.13;15298700;19;20026;-80
2023/02/08 06:20:54;;;;;;;74.28;40.42;;;;;;;-8.17;100.00;100666.38;15304487;19;20741;-78
2023/02/08 06:26:22;;;;;;;66.82;40.05;;;;;;;-8.16;100.00;100673.34;15294843;19;20015;-78
2023/02/08 06:31:46;;;;;;;64.70;38.00;;;;;;;-8.16;100.00;100666.38;15307345;19;20428;-78
2023/02/08 06:37:11;;;;;;;60.47;36.92;;;;;;;-8.15;100.00;100678.59;15296925;19;20010;-78
2023/02/08 06:42:38;;;;;;;57.10;35.10;;;;;;;-8.15;100.00;100673.34;15310530;19;20055;-78
2023/02/08 06:48:03;;;;;;;53.85;33.35;;;;;;;-8.17;100.00;100672.47;15356050;19;20018;-78
2023/02/08 06:53:28;;;;;;;47.72;31.63;;;;;;;-8.17;100.00;100675.06;15311304;19;20036;-78
2023/02/08 06:58:55;;;;;;;47.17;31.95;;;;;;;-8.18;100.00;100682.91;15309911;19;20014;-77
2023/02/08 07:04:19;;;;;;;43.60;28.92;;;;;;;-8.17;100.00;100692.53;15340435;19;20009;-78
2023/02/08 07:09:45;;;;;;;44.65;30.92;;;;;;;-8.18;100.00;100686.44;15295160;19;20067;-78
2023/02/08 07:15:14;;;;;;;42.15;29.08;;;;;;;-8.19;100.00;100679.44;15326076;19;20022;-79
2023/02/08 07:20:38;;;;;;;43.53;29.63;;;;;;;-8.18;100.00;100675.97;15334778;19;20013;-79
2023/02/08 07:26:04;;;;;;;45.08;29.98;;;;;;;-8.16;100.00;100679.44;15317208;19;20041;-81
2023/02/08 07:31:32;;;;;;;44.05;29.13;;;;;;;-8.12;100.00;100670.78;15285258;19;20003;-80
2023/02/08 07:36:56;;;;;;;47.67;30.85;;;;;;;-8.08;100.00;100672.56;15286750;19;20011;-77
2023/02/08 07:42:21;;;;;;;47.10;29.58;;;;;;;-8.01;100.00;100680.44;15286966;19;20031;-79
2023/02/08 07:48:02;;;;;;;40.22;28.83;;;;;;;-7.91;100.00;100679.63;15280013;19;20972;-76
2023/02/08 07:53:27;;;;;;;41.42;28.20;;;;;;;-7.81;100.00;100689.28;15276123;19;20639;-76
2023/02/08 07:58:51;;;;;;;45.20;29.88;;;;;;;-7.69;100.00;100685.00;15273473;19;20530;-77
2023/02/08 08:04:20;;;;;;;42.47;29.33;;;;;;;-7.58;100.00;100691.19;15268003;19;20007;-80
2023/02/08 08:09:45;;;;;;;41.55;28.25;;;;;;;-7.45;100.00;100697.38;15272547;19;20573;-78
2023/02/08 08:15:10;;;;;;;37.75;27.52;;;;;;;-7.33;100.00;100700.06;15282283;19;20021;-76
2023/02/08 08:20:38;;;;;;;37.33;27.30;;;;;;;-7.20;100.00;100706.22;15278162;19;20026;-78
2023/02/08 08:26:03;;;;;;;36.58;27.02;;;;;;;-7.09;100.00;100694.91;15272772;19;20021;-77
2023/02/08 08:31:29;;;;;;;36.30;26.05;;;;;;;-6.94;100.00;100702.84;15275428;19;20011;-78
2023/02/08 08:36:57;;;;;;;38.22;27.92;;;;;;;-6.81;100.00;100706.38;15267402;19;20026;-77
2023/02/08 08:42:22;;;;;;;33.90;25.00;;;;;;;-6.67;100.00;100703.81;15279585;19;20010;-77
2023/02/08 08:47:46;;;;;;;31.60;23.90;;;;;;;-6.48;100.00;100701.22;15268969;19;20027;-78
2023/02/08 08:53:13;;;;;;;24.95;19.92;;;;;;;-6.26;100.00;100695.13;15273449;19;20018;-77
2023/02/08 08:58:38;;;;;;;25.02;18.92;;;;;;;-6.03;100.00;100696.88;15269360;19;20014;-77
2023/02/08 09:04:03;;;;;;;23.98;17.60;;;;;;;-5.82;100.00;100674.97;15269259;19;20043;-78
2023/02/08 09:09:31;;;;;;;21.77;18.17;;;;;;;-5.64;100.00;100674.06;15266280;19;20013;-77
2023/02/08 09:14:56;;;;;;;19.48;14.60;;;;;;;-5.50;100.00;100666.13;15274736;19;20016;-77
2023/02/08 09:20:20;;;;;;;19.08;15.07;;;;;;;-5.32;100.00;100662.56;15283137;19;20031;-78
2023/02/08 09:25:48;;;;;;;20.83;16.65;;;;;;;-5.12;100.00;100661.63;15286450;19;20493;-77
2023/02/08 09:31:17;;;;;;;18.58;14.55;;;;;;;-4.93;100.00;100658.91;15266303;19;20007;-77
2023/02/08 09:36:42;;;;;;;15.88;12.98;;;;;;;-4.77;100.00;100652.69;15285707;19;20014;-77
2023/02/08 09:42:28;;;;;;;17.60;13.68;;;;;;;-4.57;100.00;100662.19;15285983;19;20006;-77
2023/02/08 09:47:59;;;;;;;17.90;13.43;;;;;;;-4.37;100.00;100657.66;15282909;19;20648;-77
2023/02/08 09:53:29;;;;;;;18.38;14.05;;;;;;;-4.19;100.00;100651.38;15285678;19;20011;-77
2023/02/08 09:58:59;;;;;;;18.40;13.32;;;;;;;-4.03;100.00;100657.38;15284005;19;20006;-78
2023/02/08 10:04:38;;;;;;;17.80;14.38;;;;;;;-3.85;100.00;100660.75;15287539;19;20011;-78
2023/02/08 10:10:06;;;;;;;16.70;13.32;;;;;;;-3.58;100.00;100650.78;15282760;19;20010;-78
2023/02/08 10:15:45;;;;;;;17.10;13.55;;;;;;;-3.33;100.00;100647.88;15281223;19;20035;-77
2023/02/08 10:21:30;;;;;;;17.13;13.13;;;;;;;-3.02;100.00;100640.47;15281960;19;20438;-77
2023/02/08 10:27:02;;;;;;;15.73;12.60;;;;;;;-2.83;100.00;100638.47;15280375;19;20023;-78
2023/02/08 10:32:50;;;;;;;18.05;12.55;;;;;;;-2.53;100.00;100633.59;15283907;19;20049;-77
2023/02/08 10:38:31;;;;;;;13.73;9.55;;;;;;;-2.13;100.00;100624.19;15311925;19;20097;-77
2023/02/08 10:44:09;;;;;;;10.13;8.52;;;;;;;-1.79;100.00;100614.78;15278786;19;20078;-76
2023/02/08 10:49:43;;;;;;;12.95;9.57;;;;;;;-1.47;100.00;100608.03;15278887;19;20025;-77
2023/02/08 10:55:15;;;;;;;10.63;7.93;;;;;;;-1.13;100.00;100591.44;15281850;19;20097;-76
2023/02/08 11:00:45;;;;;;;10.75;8.10;;;;;;;-0.85;100.00;100577.56;15283901;19;20521;-77
2023/02/08 11:06:27;;;;;;;10.57;7.20;;;;;;;-0.60;100.00;100567.28;15280816;19;20017;-77
2023/02/08 11:11:54;;;;;;;10.35;7.05;;;;;;;-0.32;100.00;100564.81;15277872;19;20022;-78
2023/02/08 11:17:28;;;;;;;9.70;7.78;;;;;;;-0.25;100.00;100551.41;15280536;19;20044;-78
2023/02/08 11:22:56;;;;;;;8.93;7.50;;;;;;;-0.09;100.00;100550.09;15285308;19;20006;-81
2023/02/08 11:28:30;;;;;;;10.20;7.30;;;;;;;0.09;100.00;100547.84;15285880;19;20379;-80
2023/02/08 11:34:09;;;;;;;8.23;6.40;;;;;;;0.30;100.00;100536.66;15288498;19;20015;-78
2023/02/08 11:39:42;;;;;;;8.13;6.30;;;;;;;0.46;100.00;100530.91;15291008;19;20376;-76
2023/02/08 11:45:08;;;;;;;8.95;6.88;;;;;;;0.62;100.00;100531.31;15282964;19;20077;-78
2023/02/08 11:50:35;;;;;;;7.15;6.00;;;;;;;0.79;100.00;100514.91;15277049;19;20011;-78
2023/02/08 11:56:11;;;;;;;8.32;6.18;;;;;;;0.89;100.00;100518.13;15280805;19;20021;-77
2023/02/08 12:01:39;;;;;;;7.53;5.65;;;;;;;1.01;100.00;100523.06;15281829;19;20010;-77
2023/02/08 12:07:27;;;;;;;7.32;5.35;;;;;;;1.20;100.00;100517.16;15278936;19;20017;-79
2023/02/08 12:13:23;;;;;;;6.22;5.10;;;;;;;1.28;100.00;100520.44;15281019;19;20010;-78
2023/02/08 12:19:02;;;;;;;6.10;5.10;;;;;;;1.50;100.00;100515.28;15281497;19;20014;-78
2023/02/08 12:24:36;;;;;;;6.93;4.78;;;;;;;1.59;100.00;100514.09;15280928;19;20022;-77
2023/02/08 12:30:12;;;;;;;6.15;5.10;;;;;;;1.72;100.00;100503.91;15272254;19;20014;-78
2023/02/08 12:35:58;;;;;;;7.20;5.00;;;;;;;1.77;100.00;100488.69;15284289;19;20015;-78
2023/02/08 12:41:29;;;;;;;9.48;5.80;;;;;;;1.89;100.00;100486.50;15279982;19;20029;-78
2023/02/08 12:47:06;;;;;;;7.97;5.53;;;;;;;2.03;100.00;100476.25;15289627;19;20014;-78
2023/02/08 12:52:43;;;;;;;5.70;4.88;;;;;;;2.18;100.00;100465.94;15286812;19;20015;-79
2023/02/08 12:58:23;;;;;;;5.78;4.50;;;;;;;2.27;100.00;100457.66;15311131;19;20797;-79
2023/02/08 13:03:57;;;;;;;4.83;3.57;;;;;;;2.48;100.00;100439.97;15312926;19;20010;-80
2023/02/08 13:09:37;;;;;;;5.05;4.10;;;;;;;2.64;100.00;100440.25;15306915;19;20082;-78
2023/02/08 13:15:18;;;;;;;6.45;4.70;;;;;;;2.84;100.00;100439.44;15312414;19;20018;-80
2023/02/08 13:20:54;;;;;;;5.70;5.00;;;;;;;2.98;100.00;100428.25;15304849;19;20097;-80
2023/02/08 13:26:25;;;;;;;7.30;4.57;;;;;;;3.26;100.00;100427.06;15292246;19;20022;-79
2023/02/08 13:31:54;;;;;;;5.60;4.73;;;;;;;3.43;100.00;100414.84;15305546;19;20011;-81
2023/02/08 13:37:31;;;;;;;7.85;4.78;;;;;;;3.60;100.00;100406.97;15300253;19;20349;-81
2023/02/08 13:43:01;;;;;;;9.20;6.10;;;;;;;3.91;100.00;100405.59;15298738;19;20017;-81
2023/02/08 14:09:50;;;;;;;7.00;5.00;;;;;;;4.92;100.00;100393.69;15328314;19;20077;-50
2023/02/08 14:15:32;;;;;;;10.25;6.45;;;;;;;5.01;100.00;100395.06;15335302;19;20025;-49
2023/02/08 14:21:09;;;;;;;7.10;6.10;;;;;;;5.16;100.00;100387.22;15344434;19;20014;-48
2023/02/08 14:26:38;;;;;;;9.00;6.85;;;;;;;5.33;100.00;100389.88;15342594;19;20011;-48
2023/02/08 14:32:03;;;;;;;7.80;6.63;;;;;;;5.38;100.00;100387.84;15337649;19;20014;-51
2023/02/08 14:37:31;;;;;;;7.63;6.68;;;;;;;5.45;100.00;100391.06;15332705;19;20094;-51
2023/02/08 14:43:07;;;;;;;7.90;6.35;;;;;;;5.51;100.00;100380.03;15343264;19;20592;-48
2023/02/08 14:48:34;;;;;;;7.68;6.57;;;;;;;5.48;99.29;100393.56;15335943;19;20033;-48
2023/02/08 14:54:02;;;;;;;7.85;6.80;;;;;;;5.52;100.00;100380.91;15343232;19;20362;-47
2023/02/08 14:59:33;;;;;;;9.05;6.53;;;;;;;5.47;100.00;100375.78;15335522;19;20003;-50
2023/02/08 15:04:58;;;;;;;7.73;6.67;;;;;;;5.53;100.00;100379.94;15339921;19;20018;-48
2023/02/08 15:10:30;;;;;;;8.45;7.03;;;;;;;5.31;100.00;100377.53;15276763;19;20010;-52
2023/02/08 15:16:01;;;;;;;9.15;6.38;;;;;;;5.25;100.00;100379.56;15278605;19;20369;-50
2023/02/08 15:21:35;;;;;;;7.13;6.43;;;;;;;5.06;100.00;100373.44;15279931;19;20362;-51
2023/02/08 15:27:01;;;;;;;8.15;6.70;;;;;;;4.90;100.00;100365.34;15277955;19;20032;-51
2023/02/08 15:32:30;;;;;;;8.32;6.82;;;;;;;4.63;100.00;100366.66;15280018;19;20014;-47
2023/02/08 15:37:56;;;;;;;8.50;6.82;;;;;;;4.42;100.00;100373.00;15276328;19;20411;-48
2023/02/08 15:43:22;;;;;;;11.10;7.40;;;;;;;4.03;100.00;100373.97;15276923;19;20495;-47
2023/02/08 15:48:50;;;;;;;9.85;7.93;;;;;;;3.61;100.00;100358.03;15273861;19;21218;-47
2023/02/08 15:54:18;;;;;;;9.63;7.90;;;;;;;3.03;100.00;100346.34;15280240;19;20018;-49
2023/02/08 15:59:47;;;;;;;8.70;7.65;;;;;;;2.46;100.00;100344.25;15278024;19;20019;-46
2023/02/08 16:05:23;;;;;;;9.95;8.07;;;;;;;1.84;100.00;100349.31;15278848;19;20022;-49
2023/02/08 16:10:54;;;;;;;8.95;7.60;;;;;;;1.44;100.00;100353.47;15272957;19;20048;-50
2023/02/08 16:16:21;;;;;;;12.50;8.05;;;;;;;0.98;100.00;100353.28;15275099;19;20036;-49
2023/02/08 16:21:50;;;;;;;8.88;7.95;;;;;;;0.59;100.00;100349.25;15274017;19;20014;-53
2023/02/08 16:27:23;;;;;;;12.73;8.90;;;;;;;0.24;100.00;100361.84;15276753;19;20042;-48
2023/02/08 16:32:48;;;;;;;13.82;8.77;;;;;;;0.07;100.00;100357.06;15278115;19;20041;-52
2023/02/08 16:38:23;;;;;;;11.45;9.82;;;;;;;-0.18;100.00;100359.59;15272515;19;20015;-48
2023/02/08 16:43:49;;;;;;;11.82;9.95;;;;;;;-0.40;100.00;100344.31;15271728;19;20493;-48
2023/02/08 16:49:13;;;;;;;12.55;10.52;;;;;;;-0.59;100.00;100335.16;15269720;19;20026;-48
2023/02/08 16:54:41;;;;;;;15.07;11.68;;;;;;;-0.76;100.00;100341.78;15276506;19;20482;-49
2023/02/08 17:00:15;;;;;;;13.57;11.95;;;;;;;-0.93;100.00;100337.81;15272128;19;20548;-47
2023/02/08 17:05:45;;;;;;;14.02;12.30;;;;;;;-1.01;100.00;100342.47;15268065;19;20030;-46
2023/02/08 17:11:13;;;;;;;16.02;13.10;;;;;;;-1.09;100.00;100339.13;15271116;19;20022;-47
2023/02/08 17:16:46;;;;;;;16.95;14.02;;;;;;;-1.22;100.00;100338.59;15267360;19;20018;-48
2023/02/08 17:22:11;;;;;;;17.70;14.05;;;;;;;-1.33;100.00;100341.47;15266548;19;20138;-47
2023/02/08 17:27:38;;;;;;;17.27;14.85;;;;;;;-1.44;100.00;100339.13;15267304;19;20025;-47
2023/02/08 17:33:03;;;;;;;18.40;14.80;;;;;;;-1.49;100.00;100337.50;15270492;19;20021;-48
2023/02/08 17:38:28;;;;;;;18.70;15.20;;;;;;;-1.57;100.00;100349.13;15265002;19;20022;-48
2023/02/08 17:43:57;;;;;;;17.50;14.95;;;;;;;-1.63;100.00;100354.56;15271454;19;20037;-46
2023/02/08 17:49:22;;;;;;;18.98;16.08;;;;;;;-1.70;100.00;100352.94;15260674;19;20024;-48
2023/02/08 17:54:47;;;;;;;18.83;15.68;;;;;;;-1.85;100.00;100343.59;15268714;19;20082;-48
2023/02/08 18:00:17;;;;;;;22.35;16.63;;;;;;;-1.93;100.00;100351.69;15270321;19;20478;-47
2023/02/08 18:05:41;;;;;;;21.63;16.65;;;;;;;-2.02;100.00;100351.91;15267342;19;20018;-49
2023/02/08 18:11:07;;;;;;;19.70;16.55;;;;;;;-2.05;100.00;100363.41;15268919;19;20018;-50
2023/02/08 18:16:36;;;;;;;22.50;16.33;;;;;;;-2.10;100.00;100364.44;15264878;19;20037;-49
2023/02/08 18:22:03;;;;;;;19.08;16.48;;;;;;;-2.20;100.00;100356.69;15261096;19;20018;-47
2023/02/08 18:27:27;;;;;;;19.77;16.60;;;;;;;-2.31;100.00;100356.06;15268462;19;20029;-47
2023/02/08 18:32:54;;;;;;;19.35;16.95;;;;;;;-2.43;100.00;100351.88;15270824;19;20014;-48
2023/02/08 18:38:19;;;;;;;20.80;17.67;;;;;;;-2.57;100.00;100349.53;15263330;19;20021;-47
2023/02/08 18:43:44;;;;;;;22.02;17.92;;;;;;;-2.73;100.00;100342.81;15278640;19;20408;-47
2023/02/08 18:49:14;;;;;;;21.35;16.35;;;;;;;-2.75;100.00;100345.47;15277385;19;20026;-50
2023/02/08 18:54:39;;;;;;;18.67;14.77;;;;;;;-2.78;100.00;100340.25;15279200;19;20082;-46
2023/02/08 19:00:03;;;;;;;17.88;14.60;;;;;;;-2.81;100.00;100335.91;15277780;19;20061;-51
2023/02/08 19:05:31;;;;;;;16.85;13.50;;;;;;;-2.82;100.00;100330.66;15284446;19;20019;-48
2023/02/08 19:10:55;;;;;;;15.02;13.23;;;;;;;-2.87;100.00;100341.28;15281655;19;20094;-47
2023/02/08 19:16:21;;;;;;;14.48;12.23;;;;;;;-2.93;100.00;100330.88;15280073;19;20029;-48
2023/02/08 19:21:49;;;;;;;16.00;13.20;;;;;;;-2.97;100.00;100326.53;15279369;19;20031;-48
2023/02/08 19:27:14;;;;;;;15.88;12.50;;;;;;;-3.02;100.00;100326.63;15273427;19;20022;-46
2023/02/08 19:32:38;;;;;;;15.45;11.52;;;;;;;-3.06;100.00;100324.97;15279881;19;20023;-49
2023/02/08 19:38:05;;;;;;;13.90;10.93;;;;;;;-3.06;100.00;100316.16;15274887;19;20051;-50
2023/02/08 19:43:30;;;;;;;13.38;10.98;;;;;;;-3.11;100.00;100316.25;15279874;19;20022;-50
2023/02/08 19:48:58;;;;;;;13.63;11.00;;;;;;;-3.13;100.00;100311.03;15275531;19;20015;-47
2023/02/08 19:54:27;;;;;;;16.50;11.38;;;;;;;-3.17;100.00;100311.97;15280806;19;20085;-47
2023/02/08 19:59:52;;;;;;;13.48;11.75;;;;;;;-3.18;100.00;100299.69;15270247;19;20018;-47
2023/02/08 20:05:22;;;;;;;14.50;12.47;;;;;;;-3.20;100.00;100285.66;15277183;19;20222;-47
2023/02/08 20:10:50;;;;;;;15.63;11.82;;;;;;;-3.23;100.00;100275.16;15275807;19;20122;-48
2023/02/08 20:16:15;;;;;;;15.52;12.50;;;;;;;-3.23;100.00;100285.69;15276293;19;20019;-50
2023/02/08 20:21:40;;;;;;;15.55;12.45;;;;;;;-3.28;100.00;100274.38;15277708;19;21098;-48
2023/02/08 20:27:08;;;;;;;14.85;11.90;;;;;;;-3.31;100.00;100277.06;15276834;19;20018;-47
2023/02/08 20:32:33;;;;;;;15.52;12.75;;;;;;;-3.36;100.00;100261.34;15269828;19;20018;-46
2023/02/08 20:37:57;;;;;;;15.18;12.23;;;;;;;-3.35;100.00;100270.97;15272708;19;20219;-50
2023/02/08 20:43:24;;;;;;;16.92;12.60;;;;;;;-3.35;100.00;100264.84;15276094;19;20048;-50
2023/02/08 20:48:49;;;;;;;16.38;12.40;;;;;;;-3.38;100.00;100265.75;15271338;19;21643;-47
2023/02/08 20:54:14;;;;;;;17.23;13.10;;;;;;;-3.43;100.00;100260.56;15277616;19;20121;-46
2023/02/08 20:59:41;;;;;;;15.80;12.85;;;;;;;-3.43;100.00;100255.31;15271525;19;20022;-47
2023/02/08 21:05:06;;;;;;;16.73;13.15;;;;;;;-3.43;100.00;100236.84;15268001;19;20026;-46
2023/02/08 21:10:38;;;;;;;16.08;12.70;;;;;;;-3.47;100.00;100243.06;15272931;19;20923;-44
2023/02/08 21:16:09;;;;;;;15.75;12.70;;;;;;;-3.50;100.00;100245.78;15275585;19;20026;-48
2023/02/08 21:21:34;;;;;;;17.13;13.50;;;;;;;-3.52;100.00;100220.34;15275515;19;20014;-46
2023/02/08 21:26:59;;;;;;;17.40;13.32;;;;;;;-3.55;100.00;100210.72;15273613;19;20088;-49
2023/02/08 21:32:27;;;;;;;16.85;13.05;;;;;;;-3.63;100.00;100202.94;15273613;19;20074;-48
2023/02/08 21:37:52;;;;;;;16.00;12.55;;;;;;;-3.62;100.00;100203.84;15267182;19;20019;-45
2023/02/08 21:43:16;;;;;;;15.98;12.85;;;;;;;-3.66;100.00;100196.88;15277765;19;20384;-47
2023/02/08 22:00:02;;;;;;;17.52;12.52;;;;;;;-3.84;100.00;100177.88;15269205;19;20034;-46
2023/02/08 22:05:29;;;;;;;16.30;13.38;;;;;;;-3.87;100.00;100177.94;15269885;19;20026;-48
2023/02/08 22:10:55;;;;;;;15.77;12.20;;;;;;;-3.92;100.00;100175.38;15268919;19;20025;-47
2023/02/08 22:16:19;;;;;;;15.60;11.95;;;;;;;-3.93;100.00;100167.50;15268922;19;20021;-47
2023/02/08 22:21:46;;;;;;;15.18;11.80;;;;;;;-3.94;100.00;100156.09;15285691;19;20018;-46
2023/02/08 22:27:12;;;;;;;15.55;12.05;;;;;;;-3.95;100.00;100161.41;15282619;19;20022;-49
2023/02/08 22:32:37;;;;;;;15.93;11.13;;;;;;;-3.96;100.00;100162.28;15284080;19;20029;-48
2023/02/08 22:38:04;;;;;;;13.75;10.90;;;;;;;-3.97;100.00;100160.56;15277214;19;20018;-48
2023/02/08 22:43:30;;;;;;;13.75;11.05;;;;;;;-4.00;100.00;100157.97;15283781;19;20478;-48
2023/02/08 22:48:54;;;;;;;14.77;11.02;;;;;;;-4.05;100.00;100158.91;15279231;19;20026;-45
2023/02/08 22:54:22;;;;;;;14.30;11.32;;;;;;;-4.05;100.00;100148.38;15284192;19;20483;-48
2023/02/08 22:59:46;;;;;;;14.23;11.95;;;;;;;-4.10;100.00;100147.59;15278359;19;20010;-48
2023/02/08 23:05:11;;;;;;;14.90;12.18;;;;;;;-4.16;100.00;100160.00;15281662;19;20360;-46
2023/02/08 23:10:45;;;;;;;15.15;11.82;;;;;;;-4.22;100.00;100160.97;15276300;19;20022;-54
2023/02/08 23:16:13;;;;;;;14.40;11.13;;;;;;;-4.25;100.00;100156.63;15279554;19;20029;-47
2023/02/08 23:21:38;;;;;;;13.02;10.85;;;;;;;-4.28;100.00;100155.78;14771617;19;10001088;-53
2023/02/08 23:27:05;;;;;;;13.00;10.23;;;;;;;-4.33;100.00;100147.97;15279268;19;20032;-51
2023/02/08 23:32:30;;;;;;;12.10;10.10;;;;;;;-4.33;100.00;100145.34;15280287;19;20019;-50
2023/02/08 23:37:55;;;;;;;14.88;10.90;;;;;;;-4.35;100.00;100148.00;15275376;19;20847;-47
2023/02/08 23:43:22;;;;;;;13.50;10.27;;;;;;;-4.30;100.00;100136.53;15276583;19;20019;-49
2023/02/08 23:48:47;;;;;;;14.73;11.18;;;;;;;-4.20;100.00;100143.38;15273852;19;20018;-46
2023/02/08 23:54:12;;;;;;;14.05;10.80;;;;;;;-4.15;100.00;100141.53;15282085;19;20643;-46
2023/02/08 23:59:40;;;;;;;12.57;9.90;;;;;;;-4.12;100.00;100138.00;15272875;19;20478;-46
